createdAt,value
2023-03-17T00:01:58.405Z,-1.53
2023-03-17T00:07:02.894Z,-1.86
2023-03-17T00:12:11.797Z,-2.61
2023-03-17T00:17:17.510Z,-2.60
2023-03-17T00:22:23.070Z,-2.24
2023-03-17T00:27:28.378Z,-2.57
2023-03-17T00:32:34.361Z,-2.14
2023-03-17T00:37:39.704Z,-2.23
2023-03-17T00:42:45.284Z,-2.27
2023-03-17T00:47:52.383Z,-1.12
2023-03-17T00:52:59.161Z,-0.84
2023-03-17T00:58:03.383Z,-0.32
2023-03-17T01:03:13.244Z,-1.43
2023-03-17T01:08:18.489Z,-1.69
2023-03-17T01:13:23.114Z,-2.11
2023-03-17T01:18:28.793Z,-1.01
2023-03-17T01:23:33.312Z,-0.15
2023-03-17T01:28:37.505Z,-1.27
2023-03-17T01:33:43.069Z,-1.39
2023-03-17T01:38:48.227Z,-1.97
2023-03-17T01:43:54.888Z,-2.41
2023-03-17T01:49:24.435Z,-2.47
2023-03-17T01:54:34.846Z,-1.72
2023-03-17T01:59:44.377Z,-2.51
2023-03-17T02:04:50.886Z,-2.73
2023-03-17T02:09:55.983Z,-1.88
2023-03-17T02:15:00.357Z,-1.37
2023-03-17T02:20:34.631Z,-2.63
2023-03-17T02:25:42.474Z,-1.75
2023-03-17T02:30:48.644Z,-1.01
2023-03-17T02:35:56.692Z,-1.82
2023-03-17T02:41:02.605Z,-1.32
2023-03-17T02:46:07.762Z,-0.65
2023-03-17T02:51:12.410Z,-1.96
2023-03-17T02:56:18.143Z,-0.81
2023-03-17T03:01:22.705Z,-0.82
2023-03-17T03:06:34.837Z,-0.57
2023-03-17T03:11:42.792Z,-1.65
2023-03-17T03:16:47.981Z,-0.93
2023-03-17T03:21:52.249Z,-2.11
2023-03-17T03:26:57.989Z,-2.47
2023-03-17T03:32:03.341Z,-2.94
2023-03-17T03:37:08.416Z,-3.14
2023-03-17T03:42:16.626Z,-3.27
2023-03-17T03:47:21.139Z,-3.89
2023-03-17T03:52:25.468Z,-3.84
2023-03-17T03:57:34.136Z,-3.94
2023-03-17T04:02:39.275Z,-4.12
2023-03-17T04:07:44.440Z,-3.58
2023-03-17T04:12:50.078Z,-3.53
2023-03-17T04:17:55.147Z,-3.67
2023-03-17T04:22:59.253Z,-2.56
2023-03-17T04:28:05.035Z,-2.52
2023-03-17T04:33:08.996Z,-3.13
2023-03-17T04:38:14.430Z,-3.36
2023-03-17T04:43:20.221Z,-3.44
2023-03-17T04:48:24.042Z,-2.49
2023-03-17T04:53:28.720Z,-1.94
2023-03-17T04:58:34.406Z,-1.05
2023-03-17T05:03:38.911Z,-0.83
2023-03-17T05:08:44.984Z,-0.85
2023-03-17T05:13:50.642Z,0.01
2023-03-17T05:18:55.314Z,0.94
2023-03-17T05:23:59.526Z,1.50
2023-03-17T05:29:05.239Z,0.86
2023-03-17T05:34:09.957Z,1.05
2023-03-17T05:39:14.781Z,-0.14
2023-03-17T05:44:20.505Z,-0.64
2023-03-17T05:49:24.683Z,-0.41
2023-03-17T05:54:29.116Z,0.40
2023-03-17T05:59:35.312Z,0.92
2023-03-17T06:04:41.283Z,1.98
2023-03-17T06:09:47.061Z,2.06
2023-03-17T06:14:54.115Z,1.99
2023-03-17T06:19:58.023Z,2.37
2023-03-17T06:25:02.366Z,3.09
2023-03-17T06:30:10.242Z,3.69
2023-03-17T06:35:16.848Z,3.54
2023-03-17T06:40:23.495Z,3.44
2023-03-17T06:45:29.926Z,3.68
2023-03-17T06:50:34.710Z,4.12
2023-03-17T06:55:38.913Z,3.42
2023-03-17T07:00:45.676Z,4.14
2023-03-17T07:05:50.088Z,4.18
2023-03-17T07:10:57.411Z,4.49
2023-03-17T07:16:06.727Z,5.03
2023-03-17T07:21:11.045Z,5.03
2023-03-17T07:26:15.260Z,5.26
2023-03-17T07:31:20.920Z,5.90
2023-03-17T07:36:25.398Z,6.77
2023-03-17T07:41:30.174Z,7.31
2023-03-17T07:46:37.091Z,6.45
2023-03-17T07:51:43.297Z,6.29
2023-03-17T07:56:47.853Z,6.31
2023-03-17T08:01:58.184Z,6.81
2023-03-17T08:07:03.353Z,6.84
2023-03-17T08:12:10.098Z,7.04
2023-03-17T08:17:17.190Z,6.66
2023-03-17T08:22:21.477Z,7.35
2023-03-17T08:27:25.867Z,7.46
2023-03-17T08:32:31.692Z,8.22
2023-03-17T08:37:39.110Z,7.99
2023-03-17T08:42:43.345Z,8.13
2023-03-17T08:47:49.280Z,7.75
2023-03-17T08:52:55.873Z,6.92
2023-03-17T08:58:00.203Z,7.35
2023-03-17T09:03:06.995Z,7.35
2023-03-17T09:08:12.086Z,7.52
2023-03-17T09:13:16.655Z,7.03
2023-03-17T09:18:22.616Z,7.87
2023-03-17T09:23:27.228Z,7.85
2023-03-17T09:28:32.001Z,7.79
2023-03-17T09:33:37.616Z,8.14
2023-03-17T09:38:41.815Z,7.66
2023-03-17T09:43:55.676Z,7.99
2023-03-17T09:49:05.028Z,8.36
2023-03-17T09:54:15.719Z,8.55
2023-03-17T09:59:31.072Z,8.24
2023-03-17T10:04:37.278Z,8.68
2023-03-17T10:09:47.807Z,8.71
2023-03-17T10:14:59.644Z,9.31
2023-03-17T10:20:10.446Z,9.11
2023-03-17T10:25:17.696Z,8.57
2023-03-17T10:30:24.116Z,9.47
2023-03-17T10:35:36.283Z,9.36
2023-03-17T10:40:41.764Z,9.66
2023-03-17T10:45:59.964Z,8.96
2023-03-17T10:51:08.853Z,8.82
2023-03-17T10:56:23.653Z,8.72
2023-03-17T11:01:31.415Z,9.43
2023-03-17T11:06:42.423Z,9.52
2023-03-17T11:11:48.884Z,9.53
2023-03-17T11:16:56.137Z,8.86
2023-03-17T11:22:10.009Z,9.68
2023-03-17T11:27:25.505Z,10.67
2023-03-17T11:32:38.696Z,10.71
2023-03-17T11:38:00.987Z,10.71
2023-03-17T11:43:24.010Z,10.63
2023-03-17T11:48:39.570Z,9.97
2023-03-17T11:54:01.804Z,11.33
2023-03-17T11:59:13.114Z,12.87
2023-03-17T12:04:23.631Z,13.84
2023-03-17T12:09:35.308Z,12.99
2023-03-17T12:14:45.315Z,14.72
2023-03-17T12:20:05.815Z,15.77
2023-03-17T12:25:18.217Z,15.75
2023-03-17T12:30:29.392Z,15.33
2023-03-17T12:35:37.009Z,14.84
2023-03-17T12:41:03.029Z,14.47
2023-03-17T12:46:30.994Z,15.38
2023-03-17T12:51:53.341Z,16.64
2023-03-17T12:57:05.022Z,16.20
2023-03-17T13:06:08.730Z,14.45
2023-03-17T13:11:19.116Z,14.70
2023-03-17T13:16:33.296Z,14.23
2023-03-17T13:21:40.082Z,14.26
2023-03-17T13:26:55.533Z,12.53
2023-03-17T13:32:31.983Z,13.25
2023-03-17T13:37:54.775Z,12.86
2023-03-17T13:43:16.323Z,12.75
2023-03-17T13:48:32.300Z,11.22
2023-03-17T13:53:41.433Z,11.89
2023-03-17T13:58:54.503Z,10.93
2023-03-17T14:03:58.870Z,11.28
2023-03-17T14:09:10.010Z,12.60
2023-03-17T14:14:32.951Z,11.63
2023-03-17T14:19:41.589Z,11.68
2023-03-17T14:24:47.484Z,10.76
2023-03-17T14:29:52.478Z,10.46
2023-03-17T14:34:59.512Z,11.49
2023-03-17T14:40:05.942Z,10.42
2023-03-17T14:45:20.720Z,11.25
2023-03-17T14:50:29.237Z,10.41
2023-03-17T14:55:43.062Z,10.72
2023-03-17T15:00:57.186Z,10.09
2023-03-17T15:06:08.421Z,9.66
2023-03-17T15:11:20.816Z,10.18
2023-03-17T15:16:29.482Z,9.20
2023-03-17T15:21:36.629Z,9.52
2023-03-17T15:26:42.298Z,9.25
2023-03-17T15:31:48.006Z,8.74
2023-03-17T15:36:52.140Z,8.74
2023-03-17T15:41:57.759Z,8.42
2023-03-17T15:47:02.663Z,8.57
2023-03-17T15:52:16.166Z,9.50
2023-03-17T15:57:22.318Z,9.71
2023-03-17T16:02:30.699Z,9.58
2023-03-17T16:07:35.422Z,9.29
2023-03-17T16:12:41.810Z,8.04
2023-03-17T16:17:47.157Z,8.24
2023-03-17T16:22:53.143Z,7.73
2023-03-17T16:28:02.360Z,7.91
2023-03-17T16:33:18.053Z,8.47
2023-03-17T16:38:24.198Z,7.98
2023-03-17T16:43:31.643Z,8.08
2023-03-17T16:48:36.230Z,7.94
2023-03-17T16:53:40.859Z,7.65
2023-03-17T16:58:47.005Z,7.79
2023-03-17T17:03:51.469Z,8.29
2023-03-17T17:08:55.621Z,7.40
2023-03-17T17:14:01.375Z,7.70
2023-03-17T17:19:13.811Z,7.59
2023-03-17T17:24:17.980Z,6.99
2023-03-17T17:29:23.726Z,7.26
2023-03-17T17:34:28.052Z,7.27
2023-03-17T17:39:33.269Z,7.35
2023-03-17T17:44:39.301Z,7.50
2023-03-17T17:49:43.357Z,7.78
2023-03-17T17:54:49.176Z,6.90
2023-03-17T17:59:54.902Z,6.77
2023-03-17T18:05:01.959Z,7.16
2023-03-17T18:10:07.310Z,7.15
2023-03-17T18:15:13.722Z,7.25
2023-03-17T18:20:19.690Z,6.34
2023-03-17T18:25:25.509Z,6.67
2023-03-17T18:30:35.148Z,6.53
2023-03-17T18:35:41.328Z,6.47
2023-03-17T18:40:46.123Z,6.56
2023-03-17T18:45:52.307Z,6.10
2023-03-17T18:50:57.253Z,6.47
2023-03-17T18:56:03.031Z,6.23
2023-03-17T19:01:18.864Z,6.08
2023-03-17T19:06:26.940Z,6.16
2023-03-17T19:11:31.752Z,6.11
2023-03-17T19:16:37.587Z,5.62
2023-03-17T19:21:42.323Z,6.12
2023-03-17T19:26:46.804Z,6.10
2023-03-17T19:31:53.257Z,5.85
2023-03-17T19:36:57.796Z,5.70
2023-03-17T19:42:02.703Z,5.60
2023-03-17T19:47:10.285Z,5.19
2023-03-17T19:52:14.870Z,5.71
2023-03-17T19:57:35.315Z,5.00
2023-03-17T20:03:09.321Z,5.16
2023-03-17T20:08:34.288Z,4.97
2023-03-17T20:13:56.114Z,5.25
2023-03-17T20:19:45.423Z,5.50
2023-03-17T20:54:41.971Z,5.57
2023-03-17T20:59:52.788Z,5.08
2023-03-17T21:04:58.960Z,5.08
2023-03-17T21:10:08.440Z,4.90
2023-03-17T21:15:14.161Z,4.87
2023-03-17T21:20:21.354Z,4.68
2023-03-17T21:52:19.169Z,4.97
